Time;durP1;ratioP1;P1;durP2;ratioP2;P2;SDS_P1;SDS_P2;PMS_P1;PMS_P2;Temp;Humidity;BMP_temperature;BMP_pressure;BME280_temperature;BME280_humidity;BME280_pressure;Samples;Min_cycle;Max_cycle;Signal;HPM_P1;HPM_P2
2023/01/01 00:02:19;;;;;;;3.10;2.30;;;19.10;55.50;;;;;;6344608;28;20023;-71
2023/01/01 00:05:20;;;;;;;4.40;2.55;;;19.10;55.50;;;;;;6344585;28;20224;-71
2023/01/01 00:08:20;;;;;;;5.88;3.17;;;19.10;55.50;;;;;;6344354;27;20024;-71
2023/01/01 00:11:21;;;;;;;3.78;2.80;;;19.10;55.50;;;;;;6343070;28;20028;-71
2023/01/01 00:14:22;;;;;;;3.55;2.88;;;19.10;55.50;;;;;;6343050;28;20023;-70
2023/01/01 00:17:22;;;;;;;4.68;3.20;;;19.10;55.50;;;;;;6342800;28;20063;-71
2023/01/01 00:20:23;;;;;;;5.03;3.35;;;19.10;55.50;;;;;;6344450;28;20024;-72
2023/01/01 00:23:25;;;;;;;3.85;3.03;;;19.10;55.50;;;;;;6344127;28;20023;-72
2023/01/01 00:26:26;;;;;;;5.43;3.22;;;19.10;55.50;;;;;;6344116;28;20499;-71
2023/01/01 00:29:26;;;;;;;4.15;3.13;;;19.10;55.50;;;;;;6343767;28;20038;-71
2023/01/01 00:32:27;;;;;;;6.57;3.05;;;19.10;55.50;;;;;;6342740;28;20551;-70
2023/01/01 00:35:28;;;;;;;5.18;3.38;;;19.10;55.50;;;;;;6342484;28;20028;-71
2023/01/01 00:38:28;;;;;;;3.65;2.65;;;19.10;55.50;;;;;;6343223;28;20485;-72
2023/01/01 00:41:29;;;;;;;5.60;3.30;;;19.10;55.50;;;;;;6343978;28;20016;-71
2023/01/01 00:44:30;;;;;;;6.15;3.92;;;19.10;55.50;;;;;;6343885;28;20612;-71
2023/01/01 00:47:31;;;;;;;5.78;3.10;;;19.10;55.50;;;;;;6343517;28;20043;-70
2023/01/01 00:50:31;;;;;;;4.30;3.35;;;19.10;55.50;;;;;;6343611;28;20024;-70
2023/01/01 00:53:32;;;;;;;6.40;3.30;;;19.10;55.50;;;;;;6342256;28;20073;-70
2023/01/01 00:56:34;;;;;;;6.88;3.53;;;19.10;55.50;;;;;;6342572;28;20043;-70
2023/01/01 00:59:34;;;;;;;6.55;3.60;;;19.10;55.50;;;;;;6343577;28;20084;-71
2023/01/01 01:02:35;;;;;;;4.43;3.05;;;19.10;55.50;;;;;;6343359;28;20043;-71
2023/01/01 01:05:37;;;;;;;4.65;3.20;;;19.10;55.50;;;;;;6342430;28;20134;-71
2023/01/01 01:08:41;;;;;;;5.25;3.30;;;19.10;55.50;;;;;;6343509;28;20019;-70
2023/01/01 01:11:42;;;;;;;6.00;3.08;;;19.10;55.50;;;;;;6343177;28;20027;-71
2023/01/01 01:14:42;;;;;;;5.68;3.60;;;19.10;55.50;;;;;;6341876;28;20024;-70
2023/01/01 01:17:43;;;;;;;4.90;3.40;;;19.10;55.50;;;;;;6342804;28;20016;-70
2023/01/01 01:20:49;;;;;;;4.20;3.30;;;19.10;55.50;;;;;;6341590;28;20107;-71
2023/01/01 01:23:50;;;;;;;4.43;3.30;;;19.10;55.50;;;;;;6341957;28;20023;-71
2023/01/01 01:26:52;;;;;;;4.88;3.47;;;19.10;55.50;;;;;;6343151;28;20072;-71
2023/01/01 01:29:53;;;;;;;7.63;3.25;;;19.10;55.50;;;;;;6342998;28;20026;-72
2023/01/01 01:32:53;;;;;;;5.47;3.20;;;19.10;55.50;;;;;;6341597;28;20015;-71
2023/01/01 01:35:54;;;;;;;4.78;3.58;;;19.10;55.50;;;;;;6341759;28;20016;-72
2023/01/01 01:38:55;;;;;;;4.57;3.10;;;19.10;55.50;;;;;;6341670;28;20550;-71
2023/01/01 01:41:55;;;;;;;4.95;3.20;;;19.10;55.50;;;;;;6342878;28;20019;-71
2023/01/01 01:44:58;;;;;;;4.30;3.10;;;19.10;55.50;;;;;;6342881;28;20051;-71
2023/01/01 01:48:00;;;;;;;5.38;3.65;;;19.10;55.50;;;;;;6342741;28;20019;-71
2023/01/01 01:51:01;;;;;;;5.05;3.10;;;19.10;55.50;;;;;;6342518;28;20483;-71
2023/01/01 01:54:11;;;;;;;3.47;2.60;;;19.10;55.40;;;;;;6341274;28;20027;-71
2023/01/01 01:57:12;;;;;;;4.55;3.10;;;19.10;55.50;;;;;;6342750;28;20042;-70
2023/01/01 02:00:14;;;;;;;4.03;3.05;;;19.10;55.50;;;;;;6341354;28;20023;-71
2023/01/01 02:03:21;;;;;;;7.30;3.00;;;19.10;55.50;;;;;;6342630;28;20495;-71
2023/01/01 02:06:22;;;;;;;5.70;3.50;;;19.10;55.50;;;;;;6343383;28;20024;-70
2023/01/01 02:09:23;;;;;;;3.70;2.70;;;19.10;55.50;;;;;;6347421;28;20024;-71
2023/01/01 02:12:26;;;;;;;6.40;3.20;;;19.10;55.50;;;;;;6347327;28;20024;-71
2023/01/01 02:15:35;;;;;;;5.65;3.42;;;19.10;55.40;;;;;;6347480;28;20019;-71
2023/01/01 02:18:49;;;;;;;4.03;3.13;;;19.10;55.40;;;;;;6346242;28;20102;-70
2023/01/01 02:22:15;;;;;;;4.28;3.35;;;19.10;55.50;;;;;;6346784;28;20046;-71
2023/01/01 02:25:37;;;;;;;3.25;2.50;;;19.10;55.40;;;;;;6345270;28;20420;-71
2023/01/01 02:28:44;;;;;;;3.72;2.90;;;19.10;55.50;;;;;;6347050;28;20143;-71
2023/01/01 02:31:59;;;;;;;4.75;2.92;;;19.10;55.50;;;;;;6345427;28;20380;-71
2023/01/01 02:38:42;;;;;;;3.35;2.60;;;19.10;55.50;;;;;;6346702;28;19908;-71
2023/01/01 02:41:47;;;;;;;3.92;2.92;;;19.10;55.40;;;;;;6345724;28;20495;-71
2023/01/01 02:44:52;;;;;;;5.20;2.97;;;19.10;55.50;;;;;;6345354;28;20106;-71
2023/01/01 02:47:53;;;;;;;4.40;3.00;;;19.10;55.50;;;;;;6345441;28;20028;-71
2023/01/01 02:50:58;;;;;;;3.78;2.70;;;19.10;55.50;;;;;;6346558;28;20073;-71
2023/01/01 02:54:32;;;;;;;3.83;2.90;;;19.10;55.50;;;;;;6346372;28;20502;-71
2023/01/01 02:57:38;;;;;;;3.85;2.67;;;19.10;55.50;;;;;;6344218;28;20036;-70
2023/01/01 03:00:40;;;;;;;3.88;2.50;;;19.10;55.50;;;;;;6345201;28;20051;-71
2023/01/01 03:03:55;;;;;;;3.55;2.50;;;19.10;55.40;;;;;;6346595;28;20263;-70
2023/01/01 03:07:23;;;;;;;3.83;2.40;;;19.10;55.40;;;;;;6346550;28;20032;-71
2023/01/01 03:10:43;;;;;;;3.42;2.55;;;19.10;55.40;;;;;;6344768;28;20039;-71
2023/01/01 03:14:11;;;;;;;3.53;2.75;;;19.10;55.40;;;;;;6344195;28;20032;-71
2023/01/01 03:17:32;;;;;;;3.70;2.85;;;19.10;55.40;;;;;;6343859;28;20027;-71
2023/01/01 03:20:37;;;;;;;4.15;2.80;;;19.10;55.40;;;;;;6345386;28;20131;-71
2023/01/01 03:23:45;;;;;;;4.07;2.58;;;19.10;55.40;;;;;;6345469;28;20478;-71
2023/01/01 03:26:49;;;;;;;3.38;2.67;;;19.10;55.50;;;;;;6345698;28;20593;-71
2023/01/01 03:29:56;;;;;;;4.10;2.70;;;19.10;55.40;;;;;;6345478;28;20481;-71
2023/01/01 03:33:07;;;;;;;4.15;2.65;;;19.10;55.40;;;;;;6344134;28;20028;-71
2023/01/01 03:36:23;;;;;;;3.50;2.20;;;19.10;55.50;;;;;;6344107;28;20016;-71
2023/01/01 03:39:33;;;;;;;3.47;2.40;;;19.10;55.40;;;;;;6345524;28;20028;-71
2023/01/01 03:42:40;;;;;;;3.10;2.50;;;19.10;55.40;;;;;;6343824;28;20035;-71
2023/01/01 03:45:46;;;;;;;2.95;2.30;;;19.10;55.40;;;;;;6345085;28;20020;-71
2023/01/01 03:48:56;;;;;;;4.68;2.60;;;19.10;55.40;;;;;;6345188;28;20019;-71
2023/01/01 03:52:14;;;;;;;3.42;2.42;;;19.10;55.40;;;;;;6345035;28;20072;-71
2023/01/01 03:55:27;;;;;;;3.03;2.17;;;19.10;55.40;;;;;;6343520;28;20040;-71
2023/01/01 03:58:51;;;;;;;5.35;2.60;;;19.10;55.40;;;;;;6344052;28;20038;-71
2023/01/01 04:01:57;;;;;;;4.20;2.70;;;19.10;55.40;;;;;;6344719;28;20472;-71
2023/01/01 04:05:00;;;;;;;3.28;2.40;;;19.10;55.40;;;;;;6344800;28;20019;-71
2023/01/01 04:08:02;;;;;;;2.90;2.30;;;19.10;55.40;;;;;;6344649;28;20040;-71
2023/01/01 04:12:00;;;;;;;3.08;2.22;;;19.10;55.40;;;;;;6343342;28;20028;-71
2023/01/01 04:14:35;;;;;;;3.38;2.67;;;19.10;55.40;;;;;;6344322;28;20059;-70
2023/01/01 04:17:36;;;;;;;3.40;2.30;;;19.10;55.40;;;;;;6318067;28;20115;-71
2023/01/01 04:20:37;;;;;;;3.50;2.50;;;19.10;55.40;;;;;;6319266;28;20023;-71
2023/01/01 04:23:37;;;;;;;2.35;1.95;;;19.10;55.40;;;;;;6338963;28;20055;-71
2023/01/01 04:26:38;;;;;;;3.63;2.20;;;19.10;55.40;;;;;;6343081;28;20020;-71
2023/01/01 04:29:40;;;;;;;3.90;2.40;;;19.10;55.40;;;;;;6344489;28;20380;-71
2023/01/01 04:32:41;;;;;;;2.53;2.00;;;19.10;55.40;;;;;;6343814;28;20023;-71
2023/01/01 04:35:42;;;;;;;5.00;2.58;;;19.10;55.40;;;;;;6342837;28;20126;-70
2023/01/01 04:38:43;;;;;;;3.75;2.40;;;19.10;55.50;;;;;;6343506;28;20404;-71
2023/01/01 04:41:46;;;;;;;2.85;2.10;;;19.10;55.40;;;;;;6342561;28;20412;-71
2023/01/01 04:44:46;;;;;;;3.13;2.33;;;19.10;55.40;;;;;;6343666;28;20023;-71
2023/01/01 04:47:47;;;;;;;3.17;2.33;;;19.10;55.40;;;;;;6344235;28;20432;-72
2023/01/01 04:50:59;;;;;;;3.42;2.08;;;19.10;55.40;;;;;;6343591;28;20354;-71
2023/01/01 04:54:01;;;;;;;3.78;2.63;;;19.10;55.40;;;;;;6341801;28;20016;-71
2023/01/01 04:57:01;;;;;;;3.72;2.00;;;19.10;55.40;;;;;;6341910;28;20036;-70
2023/01/01 05:00:40;;;;;;;2.88;1.90;;;19.10;55.40;;;;;;6342581;28;20044;-71
2023/01/01 05:03:41;;;;;;;2.63;2.00;;;19.10;55.40;;;;;;6316986;28;20027;-71
2023/01/01 05:06:42;;;;;;;2.65;1.77;;;19.10;55.40;;;;;;6328236;28;20019;-71
2023/01/01 05:09:43;;;;;;;2.58;1.92;;;19.10;55.40;;;;;;6343178;28;20110;-70
2023/01/01 05:12:44;;;;;;;2.63;2.17;;;19.10;55.40;;;;;;6343113;28;20064;-71
2023/01/01 05:15:44;;;;;;;3.08;2.00;;;19.10;55.40;;;;;;6341810;28;20068;-71
2023/01/01 05:18:46;;;;;;;3.00;1.98;;;19.10;55.30;;;;;;6341736;28;20482;-70
2023/01/01 05:21:47;;;;;;;3.22;1.90;;;19.10;55.40;;;;;;6341903;28;20054;-70
2023/01/01 05:24:47;;;;;;;3.03;1.95;;;19.10;55.40;;;;;;6343261;28;20019;-71
2023/01/01 05:27:48;;;;;;;2.63;1.95;;;19.10;55.40;;;;;;6341559;28;20031;-71
2023/01/01 05:30:50;;;;;;;4.35;2.20;;;19.10;55.40;;;;;;6341783;28;20487;-71
2023/01/01 05:33:51;;;;;;;2.40;2.08;;;19.10;55.30;;;;;;6343340;28;20555;-71
2023/01/01 05:36:52;;;;;;;2.72;2.00;;;19.10;55.40;;;;;;6343085;28;20015;-71
2023/01/01 05:39:52;;;;;;;2.22;1.65;;;19.10;55.40;;;;;;6341969;28;20376;-70
2023/01/01 05:42:53;;;;;;;2.60;2.00;;;19.10;55.40;;;;;;6346640;28;20539;-71
2023/01/01 05:46:02;;;;;;;2.53;1.70;;;19.10;55.40;;;;;;6347740;28;20027;-70
2023/01/01 05:49:03;;;;;;;2.60;1.90;;;19.10;55.30;;;;;;6348007;28;20015;-70
2023/01/01 05:52:04;;;;;;;3.70;1.80;;;19.10;55.30;;;;;;6346432;28;20692;-71
2023/01/01 05:55:05;;;;;;;2.90;2.05;;;19.10;55.40;;;;;;6346334;28;20054;-71
2023/01/01 05:58:06;;;;;;;2.63;1.85;;;19.10;55.40;;;;;;6346265;28;20023;-71
2023/01/01 06:01:21;;;;;;;2.85;2.05;;;19.10;55.30;;;;;;6343808;28;20032;-71
2023/01/01 06:04:22;;;;;;;2.22;1.77;;;19.10;55.30;;;;;;6322247;28;20024;-71
2023/01/01 06:07:22;;;;;;;2.72;1.90;;;19.10;55.30;;;;;;6329712;28;20028;-71
2023/01/01 06:10:23;;;;;;;2.78;1.83;;;19.10;55.30;;;;;;6347210;28;20020;-71
2023/01/01 06:13:24;;;;;;;2.10;1.80;;;19.10;55.40;;;;;;6347510;28;20031;-71
2023/01/01 06:16:27;;;;;;;3.35;1.80;;;19.10;55.30;;;;;;6346064;28;20097;-71
2023/01/01 06:19:27;;;;;;;4.25;1.95;;;19.10;55.40;;;;;;6346933;28;20031;-71
2023/01/01 06:22:28;;;;;;;2.45;1.75;;;19.10;55.40;;;;;;6346031;28;20306;-71
2023/01/01 06:25:28;;;;;;;2.63;1.95;;;19.10;55.40;;;;;;6345628;28;20648;-71
2023/01/01 06:28:29;;;;;;;3.17;1.95;;;19.10;55.40;;;;;;6347246;28;20020;-71
2023/01/01 06:31:30;;;;;;;2.38;1.70;;;19.10;55.30;;;;;;6345618;28;20430;-71
2023/01/01 06:34:31;;;;;;;3.63;2.13;;;19.10;55.30;;;;;;6346878;27;20027;-71
2023/01/01 06:37:32;;;;;;;4.20;1.70;;;19.10;55.40;;;;;;6346625;28;20491;-71
2023/01/01 06:40:32;;;;;;;2.67;1.85;;;19.10;55.40;;;;;;6346841;28;20028;-71
2023/01/01 06:43:35;;;;;;;2.67;1.83;;;19.10;55.30;;;;;;6346597;28;20516;-71
2023/01/01 06:46:35;;;;;;;3.47;1.90;;;19.10;55.30;;;;;;6345270;28;20016;-71
2023/01/01 06:49:36;;;;;;;1.95;1.65;;;19.10;55.30;;;;;;6345104;28;20031;-71
2023/01/01 06:52:37;;;;;;;1.75;1.40;;;19.10;55.30;;;;;;6345476;28;20024;-71
2023/01/01 06:55:37;;;;;;;2.28;1.70;;;19.10;55.30;;;;;;6346003;28;20591;-71
2023/01/01 06:58:38;;;;;;;1.50;1.30;;;19.10;55.30;;;;;;6344484;28;20042;-71
2023/01/01 07:01:39;;;;;;;2.55;1.70;;;19.10;55.30;;;;;;6345472;28;20023;-71
2023/01/01 07:04:40;;;;;;;2.33;1.75;;;19.10;55.30;;;;;;6346113;28;20019;-71
2023/01/01 07:07:41;;;;;;;2.38;1.55;;;19.10;55.30;;;;;;6345407;28;20028;-71
2023/01/01 07:10:41;;;;;;;2.08;1.55;;;19.10;55.30;;;;;;6344662;28;20432;-71
2023/01/01 07:13:43;;;;;;;1.90;1.55;;;19.10;55.30;;;;;;6344610;28;20030;-70
2023/01/01 07:16:44;;;;;;;2.08;1.48;;;19.10;55.30;;;;;;6344348;28;20029;-71
2023/01/01 07:19:45;;;;;;;3.00;1.55;;;19.10;55.30;;;;;;6344349;28;20023;-71
2023/01/01 07:22:46;;;;;;;2.35;1.55;;;19.10;55.30;;;;;;6344537;28;20028;-70
2023/01/01 07:25:51;;;;;;;3.15;1.65;;;19.10;55.30;;;;;;6345763;28;20484;-71
2023/01/01 07:28:52;;;;;;;1.98;1.70;;;19.10;55.30;;;;;;6345877;28;20659;-70
2023/01/01 07:31:53;;;;;;;1.92;1.50;;;19.10;55.30;;;;;;6344499;28;20036;-71
2023/01/01 07:34:54;;;;;;;2.15;1.60;;;19.10;55.30;;;;;;6345601;28;20031;-71
2023/01/01 07:37:55;;;;;;;1.80;1.52;;;19.10;55.30;;;;;;6345343;28;20080;-70
2023/01/01 07:40:56;;;;;;;2.03;1.50;;;19.10;55.30;;;;;;6343828;28;20480;-71
2023/01/01 07:43:57;;;;;;;1.67;1.50;;;19.10;55.30;;;;;;6345172;28;20023;-71
2023/01/01 07:47:06;;;;;;;1.75;1.48;;;19.10;55.30;;;;;;6344028;28;20016;-70
2023/01/01 07:50:10;;;;;;;1.77;1.35;;;19.10;55.30;;;;;;6343777;28;20388;-71
2023/01/01 07:53:10;;;;;;;7.13;1.77;;;19.10;55.30;;;;;;6344926;28;20015;-71
2023/01/01 07:56:11;;;;;;;2.03;1.70;;;19.10;55.30;;;;;;6344265;28;20104;-71
2023/01/01 07:59:12;;;;;;;2.33;1.58;;;19.10;55.20;;;;;;6345352;28;20156;-71
2023/01/01 08:02:13;;;;;;;1.80;1.40;;;19.10;55.30;;;;;;6345438;28;20023;-71
2023/01/01 08:05:14;;;;;;;2.55;1.63;;;19.10;55.20;;;;;;6344626;28;20047;-71
2023/01/01 08:08:15;;;;;;;2.05;1.40;;;19.10;55.30;;;;;;6343982;28;20613;-71
2023/01/01 08:11:15;;;;;;;2.08;1.40;;;19.10;55.30;;;;;;6344536;28;20066;-71
2023/01/01 08:14:16;;;;;;;2.15;1.33;;;19.10;55.30;;;;;;6344253;28;20134;-71
2023/01/01 08:17:17;;;;;;;2.28;1.45;;;19.10;55.30;;;;;;6345330;28;20031;-71
2023/01/01 08:20:18;;;;;;;1.80;1.40;;;19.10;55.30;;;;;;6343502;28;20020;-71
2023/01/01 08:23:18;;;;;;;2.55;1.63;;;19.10;55.30;;;;;;6343024;28;20593;-71
2023/01/01 08:26:29;;;;;;;1.45;1.30;;;19.10;55.30;;;;;;6344659;28;20028;-71
2023/01/01 08:29:30;;;;;;;2.20;1.58;;;19.10;55.30;;;;;;6344875;28;20031;-70
2023/01/01 08:32:30;;;;;;;2.00;1.23;;;19.10;55.30;;;;;;6343486;28;20055;-71
2023/01/01 08:35:31;;;;;;;1.40;1.20;;;19.10;55.30;;;;;;6343253;28;20027;-71
2023/01/01 08:38:32;;;;;;;1.85;1.55;;;19.10;55.30;;;;;;6343311;28;20030;-71
2023/01/01 08:41:34;;;;;;;2.75;1.73;;;19.10;55.30;;;;;;6343076;28;20047;-71
2023/01/01 08:44:35;;;;;;;1.92;1.40;;;19.10;55.30;;;;;;6342869;28;20036;-71
2023/01/01 08:47:36;;;;;;;1.85;1.40;;;19.10;55.30;;;;;;6343418;28;20121;-71
2023/01/01 08:50:36;;;;;;;2.60;1.70;;;19.10;55.30;;;;;;6343446;28;20524;-70
2023/01/01 08:53:38;;;;;;;1.50;1.20;;;19.10;55.30;;;;;;6343984;28;20074;-71
2023/01/01 08:56:39;;;;;;;2.30;1.67;;;19.10;55.30;;;;;;6343071;28;20140;-71
2023/01/01 08:59:40;;;;;;;2.95;1.60;;;19.10;55.30;;;;;;6343905;28;20059;-71
2023/01/01 09:02:41;;;;;;;2.38;1.65;;;19.10;55.20;;;;;;6342999;28;20050;-71
2023/01/01 09:05:44;;;;;;;2.47;1.65;;;19.10;56.00;;;;;;6342881;28;20054;-71
2023/01/01 09:08:45;;;;;;;2.88;1.75;;;19.10;55.20;;;;;;6344573;28;20023;-72
2023/01/01 09:11:52;;;;;;;2.97;1.45;;;19.10;55.30;;;;;;6342937;28;20062;-71
2023/01/01 09:14:53;;;;;;;1.95;1.45;;;19.10;55.30;;;;;;6342349;28;20143;-71
2023/01/01 09:17:53;;;;;;;2.83;1.17;;;19.10;56.00;;;;;;6343015;28;20391;-71
2023/01/01 09:20:54;;;;;;;3.22;1.40;;;19.10;55.30;;;;;;6343665;28;20126;-71
2023/01/01 09:23:55;;;;;;;2.63;1.63;;;19.10;55.30;;;;;;6341944;28;20144;-71
2023/01/01 09:26:55;;;;;;;2.33;1.50;;;19.10;55.30;;;;;;6342938;28;20031;-70
2023/01/01 09:29:56;;;;;;;2.28;1.40;;;19.10;55.20;;;;;;6343375;28;20076;-71
2023/01/01 09:32:57;;;;;;;2.50;1.70;;;19.10;55.30;;;;;;6341594;28;20030;-72
2023/01/01 09:36:34;;;;;;;1.58;1.30;;;19.10;55.20;;;;;;6343365;28;20080;-71
2023/01/01 09:39:34;;;;;;;2.95;1.27;;;19.10;55.20;;;;;;6341647;28;20032;-71
2023/01/01 09:43:14;;;;;;;1.92;1.25;;;19.10;55.30;;;;;;6341617;28;20024;-71
2023/01/01 09:46:15;;;;;;;1.98;1.30;;;19.10;55.30;;;;;;6342892;28;20023;-71
2023/01/01 09:49:44;;;;;;;4.85;1.50;;;19.10;55.30;;;;;;6341708;28;20031;-71
2023/01/01 09:52:49;;;;;;;2.03;1.50;;;19.10;55.30;;;;;;6339484;28;20556;-70
2023/01/01 09:55:57;;;;;;;1.85;1.27;;;19.10;55.20;;;;;;6342451;28;20040;-70
2023/01/01 09:59:00;;;;;;;1.83;1.58;;;19.10;55.20;;;;;;6343055;28;20032;-71
2023/01/01 10:02:15;;;;;;;2.67;1.67;;;19.10;55.20;;;;;;6341084;28;20035;-71
2023/01/01 10:05:32;;;;;;;2.60;1.50;;;19.10;55.20;;;;;;6342610;28;20020;-71
2023/01/01 10:09:03;;;;;;;1.70;1.40;;;19.10;55.30;;;;;;6316630;28;20032;-71
2023/01/01 10:12:14;;;;;;;1.30;1.10;;;19.10;55.30;;;;;;6333409;28;20536;-71
2023/01/01 10:15:21;;;;;;;1.92;1.42;;;19.10;55.30;;;;;;6342782;28;20035;-71
2023/01/01 10:18:32;;;;;;;3.00;1.63;;;19.10;55.30;;;;;;6341099;28;20062;-71
2023/01/01 10:21:39;;;;;;;2.33;1.35;;;19.10;55.30;;;;;;6341503;28;20106;-71
2023/01/01 10:24:43;;;;;;;2.10;1.00;;;19.10;55.30;;;;;;6342080;28;20271;-71
2023/01/01 10:28:05;;;;;;;1.80;1.35;;;19.10;55.30;;;;;;6337999;28;20068;-70
2023/01/01 10:31:18;;;;;;;2.50;1.42;;;19.10;55.30;;;;;;6334397;28;20046;-71
2023/01/01 10:34:27;;;;;;;1.58;1.38;;;19.10;55.20;;;;;;6344098;28;20555;-72
2023/01/01 10:37:34;;;;;;;1.55;1.10;;;19.10;55.20;;;;;;6345051;28;20023;-71
2023/01/01 10:40:35;;;;;;;6.47;1.70;;;19.10;55.30;;;;;;6343491;28;20027;-69
2023/01/01 10:43:36;;;;;;;2.13;1.27;;;19.10;55.20;;;;;;6345563;28;20039;-69
2023/01/01 10:46:41;;;;;;;1.90;1.38;;;19.10;55.30;;;;;;6344450;28;20026;-71
2023/01/01 10:49:54;;;;;;;1.77;1.30;;;19.10;55.30;;;;;;6344111;28;20119;-70
2023/01/01 10:52:55;;;;;;;1.65;1.20;;;19.10;55.30;;;;;;6344768;28;20034;-73
2023/01/01 10:56:04;;;;;;;1.88;1.20;;;19.10;55.20;;;;;;6343889;28;20039;-72
2023/01/01 10:59:33;;;;;;;1.50;1.20;;;19.10;55.30;;;;;;6343707;28;20024;-72
2023/01/01 11:02:33;;;;;;;1.95;1.55;;;19.10;55.30;;;;;;6318934;28;20020;-73
2023/01/01 11:05:34;;;;;;;3.45;1.45;;;19.10;55.30;;;;;;6329557;28;20051;-72
2023/01/01 11:08:38;;;;;;;2.75;1.40;;;19.10;55.30;;;;;;6326905;28;20480;-73
2023/01/01 11:11:46;;;;;;;2.05;1.30;;;19.10;55.30;;;;;;6336604;28;20034;-72
2023/01/01 11:14:52;;;;;;;2.42;1.38;;;19.10;55.30;;;;;;6346133;28;20027;-72
2023/01/01 11:18:03;;;;;;;2.08;1.27;;;19.10;55.30;;;;;;6345686;28;20554;-71
2023/01/01 11:21:05;;;;;;;2.17;1.40;;;19.10;55.30;;;;;;6345728;28;20369;-73
2023/01/01 11:24:28;;;;;;;1.70;1.00;;;19.10;55.30;;;;;;6345580;28;20027;-72
2023/01/01 11:27:29;;;;;;;2.22;1.20;;;19.10;55.40;;;;;;6344972;28;20020;-72
2023/01/01 11:30:29;;;;;;;2.13;1.25;;;19.10;55.30;;;;;;6343414;28;20030;-70
2023/01/01 11:33:37;;;;;;;3.42;1.30;;;19.10;55.30;;;;;;6344926;28;20495;-72
2023/01/01 11:36:38;;;;;;;1.92;1.15;;;19.10;55.40;;;;;;6343431;28;20054;-70
2023/01/01 11:39:46;;;;;;;2.17;1.30;;;19.10;55.40;;;;;;6344339;28;20023;-71
2023/01/01 11:42:51;;;;;;;1.92;1.35;;;19.10;55.40;;;;;;6343067;28;20026;-71
2023/01/01 11:45:56;;;;;;;2.33;1.25;;;19.10;55.40;;;;;;6343713;28;20044;-72
2023/01/01 11:48:57;;;;;;;1.50;0.90;;;19.10;55.40;;;;;;6344609;28;20497;-70
2023/01/01 11:51:59;;;;;;;2.15;1.30;;;19.10;55.40;;;;;;6343657;28;20031;-69
2023/01/01 11:55:29;;;;;;;1.92;1.40;;;19.10;55.40;;;;;;6343929;28;20412;-67
2023/01/01 11:58:35;;;;;;;1.88;1.10;;;19.10;55.40;;;;;;6344205;28;20551;-69
2023/01/01 12:01:44;;;;;;;1.65;1.10;;;19.10;55.40;;;;;;6343528;28;20107;-68
2023/01/01 12:04:54;;;;;;;1.45;0.90;;;19.10;55.40;;;;;;6343762;28;20445;-69
2023/01/01 12:07:59;;;;;;;3.13;1.27;;;19.10;55.40;;;;;;6343879;28;20069;-70
2023/01/01 12:11:22;;;;;;;1.00;0.90;;;19.10;55.40;;;;;;6343315;28;20016;-69
2023/01/01 12:15:04;;;;;;;1.35;1.20;;;19.10;55.40;;;;;;6343500;28;20436;-70
2023/01/01 12:18:46;;;;;;;4.63;1.13;;;19.10;55.40;;;;;;6342972;28;20023;-68
2023/01/01 12:21:51;;;;;;;1.80;1.17;;;19.10;55.40;;;;;;6291694;28;20029;-69
2023/01/01 12:24:52;;;;;;;1.65;1.08;;;19.10;55.40;;;;;;6339308;28;20039;-68
2023/01/01 12:28:22;;;;;;;3.05;1.10;;;19.10;55.40;;;;;;6342981;28;20026;-68
2023/01/01 12:31:26;;;;;;;1.77;0.90;;;19.10;55.40;;;;;;6342890;28;20425;-69
2023/01/01 12:35:00;;;;;;;2.42;1.17;;;19.10;55.50;;;;;;6342810;28;20031;-68
2023/01/01 12:38:13;;;;;;;1.10;0.88;;;19.10;55.50;;;;;;6337087;28;20048;-67
2023/01/01 12:41:33;;;;;;;3.20;1.13;;;19.10;55.50;;;;;;6343041;28;20023;-67
2023/01/01 12:45:01;;;;;;;2.40;1.08;;;19.10;55.50;;;;;;6342810;28;20019;-68
2023/01/01 12:48:27;;;;;;;1.58;1.08;;;19.10;55.50;;;;;;6341173;28;20027;-68
2023/01/01 12:51:51;;;;;;;1.33;1.05;;;19.10;55.50;;;;;;6320763;28;20027;-67
2023/01/01 12:55:24;;;;;;;1.60;0.98;;;19.10;55.60;;;;;;6342162;28;20111;-68
2023/01/01 12:58:35;;;;;;;1.13;0.85;;;19.10;55.60;;;;;;6325430;28;20066;-67
2023/01/01 13:01:37;;;;;;;1.45;0.98;;;19.10;55.60;;;;;;6341805;28;20454;-67
2023/01/01 13:04:40;;;;;;;3.63;1.10;;;19.10;55.50;;;;;;6342319;28;20038;-67
2023/01/01 13:07:45;;;;;;;2.25;0.98;;;19.10;55.60;;;;;;6342054;28;20661;-68
2023/01/01 13:10:49;;;;;;;1.23;0.90;;;19.10;55.60;;;;;;6342049;28;20357;-68
2023/01/01 13:13:50;;;;;;;1.25;1.00;;;19.10;55.60;;;;;;6342614;28;20115;-70
2023/01/01 13:16:56;;;;;;;3.28;1.27;;;19.10;55.70;;;;;;6342307;28;20030;-69
2023/01/01 13:20:20;;;;;;;1.85;0.98;;;19.20;56.00;;;;;;6341318;28;20030;-69
2023/01/01 13:23:37;;;;;;;1.35;0.90;;;19.20;55.70;;;;;;6332326;28;20028;-69
2023/01/01 13:26:39;;;;;;;5.93;0.98;;;19.20;56.10;;;;;;6341033;28;20015;-69
2023/01/01 13:29:43;;;;;;;2.55;1.23;;;19.30;56.00;;;;;;6333351;28;20322;-68
2023/01/01 13:33:25;;;;;;;3.23;0.97;;;19.30;55.90;;;;;;6341244;28;20027;-69
2023/01/01 13:36:28;;;;;;;5.38;1.30;;;19.30;55.70;;;;;;6342986;28;20047;-67
2023/01/01 13:39:52;;;;;;;2.08;1.00;;;19.30;55.60;;;;;;6340891;28;20371;-68
2023/01/01 13:42:54;;;;;;;2.58;1.08;;;19.30;55.60;;;;;;6341691;28;20020;-67
2023/01/01 13:45:55;;;;;;;2.83;1.10;;;19.30;55.70;;;;;;6342126;28;20047;-67
2023/01/01 13:49:05;;;;;;;2.13;0.93;;;19.30;55.70;;;;;;6342255;28;20028;-66
2023/01/01 13:52:49;;;;;;;4.68;1.00;;;19.20;55.70;;;;;;6342079;28;20024;-67
2023/01/01 13:56:24;;;;;;;3.22;1.17;;;19.20;55.80;;;;;;6339971;28;20051;-66
2023/01/01 13:59:55;;;;;;;1.88;1.02;;;19.20;55.80;;;;;;6333644;28;20036;-72
2023/01/01 14:03:11;;;;;;;1.15;0.90;;;19.20;55.80;;;;;;6342347;28;20428;-68
2023/01/01 14:06:22;;;;;;;1.83;0.88;;;19.20;55.90;;;;;;6347234;28;20047;-68
2023/01/01 14:09:23;;;;;;;1.13;0.90;;;19.20;56.50;;;;;;6347091;28;20016;-68
2023/01/01 14:12:23;;;;;;;1.73;0.82;;;19.20;55.90;;;;;;6346876;28;20209;-67
2023/01/01 14:15:31;;;;;;;5.35;1.15;;;19.20;55.90;;;;;;6355255;27;20084;-68
2023/01/01 14:18:38;;;;;;;2.85;1.10;;;19.20;55.90;;;;;;6347121;28;20027;-66
2023/01/01 14:21:39;;;;;;;4.00;1.17;;;19.20;55.90;;;;;;6346517;28;20020;-67
2023/01/01 14:24:43;;;;;;;2.45;0.93;;;19.20;55.90;;;;;;6344040;28;20048;-67
2023/01/01 14:27:44;;;;;;;2.00;0.85;;;19.20;56.00;;;;;;6346377;28;20074;-67
2023/01/01 14:30:45;;;;;;;5.72;0.98;;;19.20;56.00;;;;;;6345137;28;20071;-68
2023/01/01 14:33:47;;;;;;;8.50;0.90;;;19.20;56.00;;;;;;6346546;27;20387;-68
2023/01/01 14:36:52;;;;;;;8.50;1.08;;;19.20;56.10;;;;;;6346636;28;20434;-68
2023/01/01 14:40:15;;;;;;;14.15;1.00;;;19.30;56.60;;;;;;6345508;28;20085;-68
2023/01/01 14:43:23;;;;;;;5.97;1.10;;;19.30;56.50;;;;;;6346406;28;20073;-68
2023/01/01 14:46:25;;;;;;;2.28;1.10;;;19.30;56.30;;;;;;6345763;28;20048;-68
2023/01/01 14:49:37;;;;;;;2.42;0.80;;;19.30;56.20;;;;;;6346062;28;20244;-67
2023/01/01 14:52:39;;;;;;;2.75;1.00;;;19.30;56.20;;;;;;6338527;28;20570;-68
2023/01/01 14:55:44;;;;;;;3.38;1.10;;;19.30;56.30;;;;;;6344367;28;20055;-67
2023/01/01 14:58:45;;;;;;;1.10;0.63;;;19.30;56.20;;;;;;6344179;28;20115;-67
2023/01/01 15:01:56;;;;;;;6.47;0.95;;;19.20;56.20;;;;;;6344175;28;20042;-68
2023/01/01 15:05:13;;;;;;;1.65;0.80;;;19.20;56.10;;;;;;6344886;28;20031;-68
2023/01/01 15:08:22;;;;;;;3.45;0.90;;;19.20;56.10;;;;;;6345769;28;20032;-67
2023/01/01 15:11:24;;;;;;;1.00;0.63;;;19.20;56.10;;;;;;6345249;28;20127;-68
2023/01/01 15:14:27;;;;;;;1.38;0.80;;;19.20;56.20;;;;;;6344267;28;20084;-68
2023/01/01 15:17:44;;;;;;;1.70;0.90;;;19.20;56.10;;;;;;6344641;28;20031;-68
2023/01/01 15:20:52;;;;;;;13.45;0.80;;;19.20;56.10;;;;;;6343498;28;20027;-68
2023/01/01 15:24:00;;;;;;;1.02;0.68;;;19.20;56.10;;;;;;6345228;28;20051;-67
2023/01/01 15:27:04;;;;;;;2.33;0.90;;;19.20;56.10;;;;;;6344530;28;20030;-68
2023/01/01 15:30:06;;;;;;;1.10;0.70;;;19.20;56.10;;;;;;6345323;28;20027;-68
2023/01/01 15:33:09;;;;;;;2.00;0.80;;;19.20;56.10;;;;;;6345342;28;20647;-68
2023/01/01 15:36:10;;;;;;;0.85;0.60;;;19.20;56.10;;;;;;6345491;28;20059;-67
2023/01/01 15:39:12;;;;;;;0.85;0.70;;;19.20;56.10;;;;;;6343310;28;20396;-68
2023/01/01 15:42:47;;;;;;;2.38;0.80;;;19.20;56.10;;;;;;6344675;28;20032;-68
2023/01/01 15:46:21;;;;;;;1.35;0.77;;;19.20;56.10;;;;;;6336977;28;20027;-67
2023/01/01 15:49:28;;;;;;;1.33;0.80;;;19.20;56.20;;;;;;6337489;28;20464;-67
2023/01/01 15:52:30;;;;;;;1.10;0.80;;;19.20;56.10;;;;;;6344913;28;20531;-68
2023/01/01 15:55:33;;;;;;;0.70;0.60;;;19.20;56.10;;;;;;6340317;28;20035;-68
2023/01/01 15:58:55;;;;;;;1.65;1.00;;;19.20;56.10;;;;;;6343579;28;20077;-68
2023/01/01 16:02:26;;;;;;;2.45;0.70;;;19.20;56.20;;;;;;6319006;28;20031;-68
2023/01/01 16:05:27;;;;;;;1.00;0.60;;;19.20;56.10;;;;;;6332456;28;20020;-68
2023/01/01 16:08:28;;;;;;;2.80;0.60;;;19.20;56.10;;;;;;6344761;28;20577;-67
2023/01/01 16:11:29;;;;;;;1.00;0.60;;;19.20;56.10;;;;;;6344016;27;20032;-68
2023/01/01 16:14:29;;;;;;;1.23;0.80;;;19.20;56.20;;;;;;6343704;28;20503;-68
2023/01/01 16:17:30;;;;;;;1.15;0.65;;;19.20;56.20;;;;;;6343858;28;20131;-68